Time;durP1;ratioP1;P1;durP2;ratioP2;P2;SDS_P1;SDS_P2;PMS_P1;PMS_P2;Temp;Humidity;BMP_temperature;BMP_pressure;BME280_temperature;BME280_humidity;BME280_pressure;Samples;Min_cycle;Max_cycle;Signal;HPM_P1;HPM_P2
2023/03/25 00:00:38;;;;;;;3.27;1.73;;;;;;;10.13;73.64;99921.38;6219694;28;20244;-72
2023/03/25 00:03:59;;;;;;;2.80;1.93;;;;;;;9.89;74.36;99926.00;6191256;28;20315;-73
2023/03/25 00:07:21;;;;;;;5.03;2.10;;;;;;;9.94;74.41;99922.78;6200844;28;20229;-74
2023/03/25 00:10:43;;;;;;;1.97;1.80;;;;;;;9.89;74.41;99927.81;6222730;28;20224;-73
2023/03/25 00:14:07;;;;;;;1.63;1.33;;;;;;;9.83;74.54;99933.81;6221517;28;20225;-72
2023/03/25 00:17:29;;;;;;;1.87;1.73;;;;;;;9.81;74.63;99920.81;6188596;28;20229;-73
2023/03/25 00:20:51;;;;;;;3.47;2.23;;;;;;;9.80;74.49;99918.38;6212072;28;20714;-73
2023/03/25 00:24:16;;;;;;;1.80;1.70;;;;;;;9.76;74.75;99920.56;6213525;28;20229;-73
2023/03/25 00:27:37;;;;;;;3.10;2.27;;;;;;;9.79;74.63;99920.19;6197084;28;20233;-72
2023/03/25 00:31:00;;;;;;;3.70;3.40;;;;;;;9.75;74.79;99921.56;6210571;28;20259;-73
2023/03/25 00:34:22;;;;;;;3.67;2.87;;;;;;;9.66;75.51;99914.78;6217663;28;20256;-73
2023/03/25 00:37:44;;;;;;;4.07;3.77;;;;;;;9.60;75.61;99899.72;6198152;28;20233;-74
2023/03/25 00:41:16;;;;;;;3.43;2.10;;;;;;;9.65;75.75;99907.88;6212068;28;20241;-73
2023/03/25 00:44:37;;;;;;;2.50;2.30;;;;;;;9.63;76.12;99896.72;6213863;28;20231;-73
2023/03/25 00:47:58;;;;;;;4.40;2.83;;;;;;;9.54;75.78;99900.44;6189153;28;20598;-74
2023/03/25 00:51:21;;;;;;;3.07;2.57;;;;;;;9.57;76.28;99905.34;6194745;28;20268;-73
2023/03/25 00:54:42;;;;;;;5.80;2.27;;;;;;;9.64;75.84;99906.25;6186645;28;20347;-73
2023/03/25 00:58:04;;;;;;;2.70;2.17;;;;;;;9.63;76.24;99898.53;6186013;28;20225;-73
2023/03/25 01:01:27;;;;;;;2.53;2.33;;;;;;;9.68;75.85;99917.22;6190334;28;20238;-74
2023/03/25 01:04:49;;;;;;;1.70;1.60;;;;;;;9.63;76.19;99909.06;6225453;28;20569;-73
2023/03/25 01:08:13;;;;;;;1.83;1.70;;;;;;;9.64;75.94;99911.50;6188527;28;20229;-72
2023/03/25 01:11:37;;;;;;;3.57;2.20;;;;;;;9.74;75.60;99906.75;6217163;28;20253;-73
2023/03/25 01:14:58;;;;;;;3.07;2.73;;;;;;;9.78;75.51;99900.09;6224665;28;20236;-72
2023/03/25 01:18:19;;;;;;;3.23;2.83;;;;;;;9.82;75.23;99905.84;6195900;28;20232;-73
2023/03/25 01:21:40;;;;;;;2.47;1.87;;;;;;;9.85;75.11;99895.72;6196718;28;20232;-72
2023/03/25 01:25:03;;;;;;;3.53;3.13;;;;;;;9.86;75.06;99902.63;6202994;28;20232;-73
2023/03/25 01:28:25;;;;;;;2.87;2.17;;;;;;;9.91;74.88;99897.63;6198937;28;20233;-74
2023/03/25 01:31:46;;;;;;;4.03;3.63;;;;;;;9.87;75.25;99896.38;6189388;28;20248;-73
2023/03/25 01:35:09;;;;;;;6.50;2.43;;;;;;;9.87;74.92;99888.47;6221842;28;20232;-74
2023/03/25 01:38:30;;;;;;;4.23;2.20;;;;;;;9.95;74.80;99892.78;6196957;28;20240;-72
2023/03/25 01:41:53;;;;;;;3.47;1.90;;;;;;;9.92;74.63;99891.34;6214260;28;20312;-73
2023/03/25 01:45:25;;;;;;;2.47;1.90;;;;;;;9.90;74.44;99874.91;6228410;28;20248;-72
2023/03/25 01:48:48;;;;;;;1.77;1.67;;;;;;;9.91;74.22;99881.81;6203440;28;21068;-72
2023/03/25 01:52:15;;;;;;;3.40;1.80;;;;;;;9.93;73.71;99871.09;6214174;28;20577;-71
2023/03/25 01:55:38;;;;;;;2.43;2.33;;;;;;;9.90;74.00;99880.19;6220977;28;20275;-71
2023/03/25 01:59:04;;;;;;;3.23;1.87;;;;;;;9.81;74.41;99865.47;6210107;28;20236;-71
2023/03/25 02:02:35;;;;;;;2.80;2.60;;;;;;;9.83;74.65;99870.56;6211463;28;20252;-73
2023/03/25 02:06:02;;;;;;;2.13;1.93;;;;;;;9.76;74.78;99859.94;6210555;28;20556;-71
2023/03/25 02:09:25;;;;;;;3.43;2.70;;;;;;;9.76;75.13;99851.22;6217604;28;20578;-71
2023/03/25 02:12:46;;;;;;;2.07;1.90;;;;;;;9.76;74.50;99845.94;6212685;28;20232;-71
2023/03/25 02:16:23;;;;;;;1.77;1.63;;;;;;;9.76;74.35;99867.84;6207086;28;20228;-71
2023/03/25 02:20:20;;;;;;;5.77;2.77;;;;;;;9.74;74.10;99856.69;6215481;28;20307;-71
2023/03/25 02:24:18;;;;;;;3.67;2.50;;;;;;;9.72;74.20;99858.69;6193373;28;20221;-72
2023/03/25 02:27:56;;;;;;;2.00;1.90;;;;;;;9.73;74.28;99835.78;6212674;28;20228;-72
2023/03/25 02:31:49;;;;;;;2.30;1.73;;;;;;;9.68;74.65;99838.19;6212119;28;20224;-72
2023/03/25 02:35:27;;;;;;;6.00;3.17;;;;;;;9.64;74.64;99840.38;6209168;28;20236;-72
2023/03/25 02:38:53;;;;;;;3.27;2.90;;;;;;;9.58;74.66;99849.03;6147484;28;20231;-73
2023/03/25 02:42:18;;;;;;;1.97;1.83;;;;;;;9.60;74.67;99844.38;6214371;28;20228;-72
2023/03/25 02:45:44;;;;;;;2.50;2.30;;;;;;;9.54;74.95;99829.31;6199243;28;20220;-72
2023/03/25 02:49:09;;;;;;;2.90;2.30;;;;;;;9.58;74.55;99830.56;6208398;28;20407;-73
2023/03/25 02:52:36;;;;;;;4.53;1.80;;;;;;;9.53;74.53;99838.22;6188447;28;20312;-73
2023/03/25 02:56:02;;;;;;;2.17;1.60;;;;;;;9.58;74.46;99828.75;6223106;28;20325;-73
2023/03/25 02:59:24;;;;;;;2.10;1.90;;;;;;;9.50;74.68;99823.59;6224924;28;20228;-73
2023/03/25 03:02:58;;;;;;;5.47;2.83;;;;;;;9.52;74.52;99826.03;6183407;28;20605;-73
2023/03/25 03:06:21;;;;;;;3.13;2.83;;;;;;;9.52;74.77;99818.97;6212154;28;20291;-71
2023/03/25 03:09:46;;;;;;;1.90;1.70;;;;;;;9.50;74.43;99828.88;6218378;28;20228;-73
2023/03/25 03:13:19;;;;;;;2.87;2.60;;;;;;;9.50;74.28;99813.06;6210908;28;20240;-73
2023/03/25 03:16:57;;;;;;;6.70;2.33;;;;;;;9.51;74.35;99821.78;6210615;28;20618;-72
2023/03/25 03:20:31;;;;;;;2.23;2.03;;;;;;;9.52;74.55;99812.88;6221579;28;20256;-73
2023/03/25 03:23:58;;;;;;;2.27;2.07;;;;;;;9.56;74.46;99814.13;6212102;28;20228;-72
2023/03/25 03:27:28;;;;;;;4.37;2.33;;;;;;;9.57;73.94;99813.13;6186186;28;20851;-73
2023/03/25 03:30:58;;;;;;;5.43;2.23;;;;;;;9.51;74.05;99816.50;6218464;28;20235;-73
2023/03/25 03:34:23;;;;;;;2.83;1.93;;;;;;;9.51;74.53;99819.16;6213857;28;20919;-73
2023/03/25 03:37:50;;;;;;;1.70;1.60;;;;;;;9.52;74.33;99820.78;6200008;28;20229;-72
2023/03/25 03:41:15;;;;;;;3.27;2.63;;;;;;;9.55;73.76;99804.59;6218734;28;22156;-71
2023/03/25 03:44:39;;;;;;;3.97;2.90;;;;;;;9.50;74.10;99814.88;6223507;28;21078;-72
2023/03/25 03:48:06;;;;;;;5.37;1.90;;;;;;;9.49;74.27;99805.34;6212983;28;20240;-74
2023/03/25 03:51:30;;;;;;;2.87;1.93;;;;;;;9.51;73.99;99808.59;6212981;28;20299;-74
2023/03/25 03:54:55;;;;;;;2.23;2.00;;;;;;;9.54;74.06;99811.69;6225428;28;20257;-74
2023/03/25 03:58:22;;;;;;;2.00;1.20;;;;;;;9.44;74.25;99807.75;6212697;28;20216;-73
2023/03/25 04:01:47;;;;;;;2.40;1.90;;;;;;;9.47;73.98;99802.94;6206777;28;20248;-73
2023/03/25 04:05:14;;;;;;;4.00;1.90;;;;;;;9.46;74.18;99809.19;6222493;28;20256;-73
2023/03/25 04:08:44;;;;;;;2.07;1.60;;;;;;;9.41;74.43;99818.66;6197476;28;20237;-74
2023/03/25 04:12:10;;;;;;;6.20;2.87;;;;;;;9.41;74.69;99808.13;6209025;28;20236;-73
2023/03/25 04:15:31;;;;;;;2.00;1.90;;;;;;;9.40;74.68;99815.19;6220269;28;20236;-73
2023/03/25 04:18:52;;;;;;;1.83;1.57;;;;;;;9.42;74.44;99813.19;6189786;28;20225;-72
2023/03/25 04:22:16;;;;;;;2.87;2.03;;;;;;;9.40;74.17;99817.00;6216857;28;20224;-72
2023/03/25 04:25:37;;;;;;;5.57;1.20;;;;;;;9.41;74.38;99810.75;6223568;28;20252;-72
2023/03/25 04:28:58;;;;;;;3.50;2.17;;;;;;;9.43;74.07;99812.19;6206845;28;20233;-71
2023/03/25 04:32:19;;;;;;;6.63;2.70;;;;;;;9.40;74.06;99817.00;6207539;28;20609;-72
2023/03/25 04:35:40;;;;;;;3.43;1.70;;;;;;;9.40;74.28;99809.13;6207051;28;20229;-73
2023/03/25 04:39:02;;;;;;;2.57;1.57;;;;;;;9.42;73.93;99820.28;6215428;28;20236;-73
2023/03/25 04:42:24;;;;;;;5.47;1.73;;;;;;;9.35;74.73;99824.66;6218734;28;20232;-73
2023/03/25 04:45:52;;;;;;;1.37;1.30;;;;;;;9.24;76.14;99832.03;6217461;28;22143;-73
2023/03/25 04:49:19;;;;;;;2.03;1.40;;;;;;;9.13;78.20;99834.31;6202765;28;20232;-74
2023/03/25 04:52:40;;;;;;;2.50;1.80;;;;;;;9.03;79.42;99823.28;6216143;28;20228;-73
2023/03/25 04:56:03;;;;;;;2.33;2.10;;;;;;;8.98;81.10;99810.66;6227292;28;20319;-73
2023/03/25 04:59:25;;;;;;;2.83;1.93;;;;;;;8.90;81.77;99795.78;6225634;28;20228;-73
2023/03/25 05:02:49;;;;;;;3.00;1.70;;;;;;;8.90;81.17;99800.22;6212163;28;20515;-73
2023/03/25 05:06:10;;;;;;;2.67;2.43;;;;;;;9.01;81.13;99802.41;6217825;28;20224;-71
2023/03/25 05:09:31;;;;;;;2.23;2.03;;;;;;;8.98;80.44;99807.22;6226999;28;20236;-71
2023/03/25 05:12:58;;;;;;;2.30;2.10;;;;;;;9.00;80.16;99810.47;6211190;28;20228;-72
2023/03/25 05:16:19;;;;;;;7.10;1.90;;;;;;;8.97;80.66;99800.31;6211447;28;20236;-71
2023/03/25 05:19:42;;;;;;;1.93;1.33;;;;;;;9.00;80.72;99808.66;6225603;28;20236;-71
2023/03/25 05:23:03;;;;;;;1.83;1.73;;;;;;;9.02;80.51;99819.00;6215203;28;20229;-71
2023/03/25 05:26:24;;;;;;;1.40;1.30;;;;;;;8.99;80.10;99817.56;6215272;28;20836;-71
2023/03/25 05:29:47;;;;;;;2.13;2.03;;;;;;;8.99;80.06;99822.81;6227420;28;20243;-71
2023/03/25 05:33:09;;;;;;;2.10;1.70;;;;;;;8.95;81.63;99811.00;6216900;28;20724;-71
2023/03/25 05:36:30;;;;;;;5.80;1.97;;;;;;;8.92;81.75;99821.91;6214544;28;20450;-70
2023/03/25 05:39:51;;;;;;;3.03;1.87;;;;;;;8.96;81.34;99832.88;6214360;28;20229;-71
2023/03/25 05:43:13;;;;;;;3.43;1.73;;;;;;;8.87;81.67;99832.16;6221860;28;20236;-72
2023/03/25 05:46:35;;;;;;;2.03;1.80;;;;;;;8.91;81.94;99834.25;6216904;28;20240;-71
2023/03/25 05:49:57;;;;;;;1.97;1.43;;;;;;;8.95;80.70;99839.16;6222175;28;20228;-73
2023/03/25 05:53:19;;;;;;;2.63;1.40;;;;;;;9.01;79.97;99838.44;6218719;28;20232;-74
2023/03/25 05:56:41;;;;;;;4.80;1.50;;;;;;;8.99;79.60;99850.94;6219264;28;20626;-73
2023/03/25 06:00:03;;;;;;;1.07;1.07;;;;;;;8.99;78.32;99851.75;6224689;28;20613;-73
2023/03/25 06:03:34;;;;;;;1.77;1.50;;;;;;;8.99;78.87;99835.97;6210847;28;20696;-73
2023/03/25 06:06:55;;;;;;;4.33;1.60;;;;;;;9.00;78.28;99831.53;6214542;28;20259;-71
2023/03/25 06:10:17;;;;;;;3.67;2.63;;;;;;;9.08;78.49;99829.59;6214598;28;20236;-72
2023/03/25 06:13:38;;;;;;;3.47;3.17;;;;;;;9.07;78.89;99835.84;6213502;28;20260;-73
2023/03/25 06:16:59;;;;;;;2.97;1.40;;;;;;;9.06;78.91;99850.00;6196593;28;20359;-74
2023/03/25 06:20:22;;;;;;;2.10;1.90;;;;;;;9.03;79.69;99850.41;6223579;28;20632;-72
2023/03/25 06:23:42;;;;;;;2.20;1.80;;;;;;;9.06;78.61;99855.28;6196547;28;20228;-72
2023/03/25 06:27:05;;;;;;;5.13;2.07;;;;;;;9.11;79.34;99854.75;6213304;28;20236;-73
2023/03/25 06:30:26;;;;;;;3.63;1.87;;;;;;;9.07;79.12;99856.09;6221142;28;20236;-72
2023/03/25 06:33:49;;;;;;;2.57;2.27;;;;;;;9.09;79.03;99859.38;6216433;28;20224;-71
2023/03/25 06:37:11;;;;;;;2.57;1.90;;;;;;;9.10;79.76;99855.75;6217675;28;20311;-73
2023/03/25 06:40:33;;;;;;;1.73;1.63;;;;;;;9.08;79.71;99857.72;6220932;28;20264;-74
2023/03/25 06:43:57;;;;;;;3.07;2.47;;;;;;;9.08;80.91;99861.19;6203676;28;20316;-73
2023/03/25 06:47:44;;;;;;;4.03;2.10;;;;;;;8.95;82.05;99857.56;6191806;28;20236;-75
2023/03/25 06:51:05;;;;;;;1.97;1.60;;;;;;;8.99;81.99;99857.03;6211138;28;20225;-73
2023/03/25 06:54:27;;;;;;;2.83;1.67;;;;;;;8.99;81.51;99872.00;6221528;28;20244;-74
2023/03/25 06:57:48;;;;;;;1.90;1.80;;;;;;;9.05;80.55;99858.09;6203637;28;20224;-73
2023/03/25 07:01:09;;;;;;;2.53;1.43;;;;;;;9.03;82.05;99868.03;6221713;28;20225;-74
2023/03/25 07:04:31;;;;;;;2.23;2.03;;;;;;;8.85;84.39;99871.00;6211055;28;20229;-72
2023/03/25 07:07:52;;;;;;;1.50;1.40;;;;;;;8.56;85.43;99864.72;6209687;28;20225;-73
2023/03/25 07:11:16;;;;;;;5.63;2.50;;;;;;;8.48;86.30;99875.31;6214316;28;20232;-71
2023/03/25 07:14:37;;;;;;;2.30;1.87;;;;;;;8.64;87.19;99871.69;6221420;28;20248;-71
2023/03/25 07:17:58;;;;;;;2.67;2.10;;;;;;;8.81;87.22;99867.13;6199520;28;20268;-73
2023/03/25 07:21:19;;;;;;;3.57;2.20;;;;;;;8.89;84.74;99869.63;6206688;28;20247;-72
2023/03/25 07:24:40;;;;;;;2.97;1.83;;;;;;;9.09;84.00;99867.25;6220074;28;20255;-72
2023/03/25 07:28:02;;;;;;;4.90;2.17;;;;;;;9.20;82.99;99866.81;6194783;28;20540;-72
2023/03/25 07:31:25;;;;;;;4.90;2.17;;;;;;;9.13;82.25;99877.25;6208061;28;20224;-74
2023/03/25 07:34:46;;;;;;;8.20;4.07;;;;;;;9.39;82.12;99871.50;6227757;28;20260;-74
2023/03/25 07:38:06;;;;;;;16.70;3.03;;;;;;;9.36;80.86;99869.22;6201940;28;20323;-73
2023/03/25 07:41:27;;;;;;;8.03;3.10;;;;;;;9.37;80.08;99872.69;6216828;28;20228;-73
2023/03/25 07:45:07;;;;;;;5.33;2.57;;;;;;;9.37;79.90;99870.88;6203717;28;20228;-74
2023/03/25 07:48:29;;;;;;;6.67;2.07;;;;;;;9.39;79.59;99881.22;6194709;28;20240;-75
2023/03/25 07:51:50;;;;;;;1.60;1.50;;;;;;;9.41;77.86;99881.84;6209225;28;20233;-70
2023/03/25 07:55:10;;;;;;;2.60;2.40;;;;;;;9.53;77.39;99867.19;6217736;28;20592;-71
2023/03/25 07:58:32;;;;;;;2.73;1.67;;;;;;;9.70;76.95;99867.81;6224781;28;20306;-74
2023/03/25 08:01:54;;;;;;;2.67;1.70;;;;;;;10.20;75.64;99857.16;6212464;28;20237;-72
2023/03/25 08:05:20;;;;;;;1.63;1.53;;;;;;;9.78;75.17;99871.13;6200743;28;20264;-70
2023/03/25 08:08:40;;;;;;;2.07;1.47;;;;;;;9.98;74.80;99868.69;6216848;28;20770;-69
2023/03/25 08:12:01;;;;;;;1.67;1.50;;;;;;;9.75;75.29;99889.13;6208840;28;20240;-72
2023/03/25 08:15:23;;;;;;;2.07;1.63;;;;;;;9.66;75.99;99874.44;6226729;28;20232;-73
2023/03/25 08:18:46;;;;;;;3.17;1.70;;;;;;;9.90;75.05;99874.91;6213060;28;20233;-73
2023/03/25 08:22:06;;;;;;;2.67;1.50;;;;;;;9.87;74.75;99885.00;6209122;28;20261;-74
2023/03/25 08:25:28;;;;;;;2.70;2.50;;;;;;;9.92;74.81;99894.00;6215344;28;20232;-74
2023/03/25 08:28:49;;;;;;;4.57;3.00;;;;;;;9.99;74.21;99874.75;6209488;28;20237;-71
2023/03/25 08:32:10;;;;;;;1.83;1.73;;;;;;;10.40;73.09;99873.13;6198997;28;20229;-75
2023/03/25 08:35:34;;;;;;;1.57;1.20;;;;;;;10.21;73.64;99869.31;6214589;28;20266;-73
2023/03/25 08:38:55;;;;;;;1.73;1.63;;;;;;;10.09;74.08;99872.66;6209488;28;20454;-74
2023/03/25 08:42:17;;;;;;;4.30;1.50;;;;;;;10.00;73.33;99887.75;6211551;28;20233;-73
2023/03/25 08:45:38;;;;;;;1.73;1.60;;;;;;;9.82;74.61;99869.75;6215130;28;20224;-73
2023/03/25 08:48:59;;;;;;;3.17;1.47;;;;;;;9.66;75.63;99875.25;6202310;28;20866;-73
2023/03/25 08:52:22;;;;;;;3.07;1.70;;;;;;;9.82;76.50;99869.75;6190630;28;20244;-68
2023/03/25 08:55:43;;;;;;;3.17;1.60;;;;;;;9.93;75.45;99874.53;6227307;28;20240;-67
2023/03/25 08:59:04;;;;;;;2.40;1.63;;;;;;;10.07;76.43;99872.84;6225520;28;20240;-72
2023/03/25 09:02:25;;;;;;;3.10;2.80;;;;;;;10.35;76.42;99870.28;6226812;28;20228;-66
2023/03/25 09:05:46;;;;;;;2.50;2.30;;;;;;;10.02;73.97;99896.31;6225408;28;20233;-68
2023/03/25 09:09:09;;;;;;;1.40;1.30;;;;;;;9.69;74.60;99895.97;6218865;28;20236;-75
2023/03/25 09:12:34;;;;;;;1.00;1.00;;;;;;;9.17;78.42;99882.97;6212157;28;20228;-72
2023/03/25 09:15:57;;;;;;;1.77;1.13;;;;;;;9.01;79.29;99893.69;6217416;28;20228;-71
2023/03/25 09:19:18;;;;;;;1.40;1.30;;;;;;;9.12;78.64;99901.13;6220432;28;20237;-72
2023/03/25 09:22:40;;;;;;;0.90;0.90;;;;;;;9.13;78.65;99911.47;6214385;28;20650;-72
2023/03/25 09:26:04;;;;;;;0.87;0.80;;;;;;;8.83;81.06;99902.75;6223808;28;20264;-71
2023/03/25 09:29:24;;;;;;;1.40;1.30;;;;;;;8.63;81.00;99906.88;6222471;28;20229;-72
2023/03/25 09:32:45;;;;;;;1.50;1.23;;;;;;;8.73;80.67;99904.00;6226604;28;20240;-71
2023/03/25 09:36:06;;;;;;;2.27;1.43;;;;;;;8.68;79.63;99896.66;6229135;28;20245;-72
2023/03/25 09:39:27;;;;;;;0.97;0.90;;;;;;;8.75;79.21;99892.31;6213820;28;20324;-72
2023/03/25 09:43:08;;;;;;;1.10;1.00;;;;;;;8.64;78.54;99905.09;6214515;28;20225;-72
2023/03/25 09:46:29;;;;;;;1.13;1.03;;;;;;;8.61;78.81;99916.78;6211144;28;20233;-71
2023/03/25 09:49:54;;;;;;;1.37;1.00;;;;;;;8.70;78.58;99910.44;6218009;28;20226;-73
2023/03/25 09:53:25;;;;;;;0.93;0.83;;;;;;;8.58;75.98;99901.38;6209044;28;20343;-72
2023/03/25 09:56:51;;;;;;;3.40;1.03;;;;;;;8.71;77.13;99896.31;6208519;28;20700;-72
2023/03/25 10:00:21;;;;;;;0.90;0.90;;;;;;;8.72;76.35;99897.94;6209732;28;21098;-72
2023/03/25 10:03:54;;;;;;;0.87;0.87;;;;;;;8.79;75.27;99909.38;6211066;28;20239;-72
2023/03/25 10:07:29;;;;;;;1.37;1.07;;;;;;;9.08;74.93;99895.41;6208100;28;20625;-73
2023/03/25 10:10:59;;;;;;;0.77;0.70;;;;;;;9.24;73.03;99895.22;6211951;28;20220;-72
2023/03/25 10:14:27;;;;;;;1.30;1.17;;;;;;;9.40;72.58;99894.22;6209763;28;20299;-72
2023/03/25 10:18:03;;;;;;;1.97;0.77;;;;;;;9.57;72.77;99897.44;6208826;28;20240;-71
2023/03/25 10:21:32;;;;;;;7.03;1.37;;;;;;;9.83;72.41;99889.84;6200612;28;20233;-72
2023/03/25 10:24:58;;;;;;;0.80;0.80;;;;;;;10.22;71.44;99897.34;6181984;28;20326;-74
2023/03/25 10:28:24;;;;;;;0.77;0.77;;;;;;;10.27;72.14;99902.88;6204298;28;20247;-72
2023/03/25 10:31:51;;;;;;;4.63;1.53;;;;;;;10.62;71.09;99895.81;6201166;28;20505;-72
2023/03/25 10:35:19;;;;;;;0.70;0.70;;;;;;;10.94;68.71;99914.72;6215488;28;20240;-70
2023/03/25 10:38:42;;;;;;;2.13;1.00;;;;;;;10.35;70.57;99896.66;6204713;28;20328;-74
2023/03/25 10:42:13;;;;;;;2.00;1.83;;;;;;;10.91;69.40;99910.66;6220634;28;20228;-73
2023/03/25 10:45:35;;;;;;;3.17;1.93;;;;;;;10.92;70.18;99891.16;6223448;28;20673;-78
2023/03/25 10:48:58;;;;;;;8.57;1.70;;;;;;;10.90;67.65;99906.38;6225552;28;20233;-71
2023/03/25 10:52:21;;;;;;;1.60;1.50;;;;;;;10.98;67.27;99889.59;6222616;28;20236;-69
2023/03/25 10:55:44;;;;;;;2.43;1.97;;;;;;;10.88;67.64;99889.09;6233298;28;20231;-73
2023/03/25 10:59:15;;;;;;;3.33;1.30;;;;;;;10.77;67.92;99894.94;6230481;28;20495;-72
2023/03/25 11:02:36;;;;;;;1.23;1.13;;;;;;;10.38;67.79;99900.72;6222145;28;20228;-73
2023/03/25 11:05:59;;;;;;;8.10;2.40;;;;;;;10.46;69.01;99887.38;6233340;28;20217;-72
2023/03/25 11:09:26;;;;;;;6.27;1.47;;;;;;;10.18;70.50;99888.13;6226422;28;20229;-73
2023/03/25 11:12:50;;;;;;;1.10;1.03;;;;;;;10.13;70.14;99866.81;6224639;28;20311;-74
2023/03/25 11:16:12;;;;;;;1.10;1.10;;;;;;;9.92;70.46;99907.16;6225792;28;20253;-73
2023/03/25 11:19:39;;;;;;;2.53;1.00;;;;;;;9.48;71.90;99931.00;6139470;28;20226;-70
2023/03/25 11:23:06;;;;;;;1.13;1.00;;;;;;;9.25;72.36;99919.75;6228123;28;21809;-71
2023/03/25 11:26:32;;;;;;;4.70;1.57;;;;;;;9.14;71.65;99949.16;6216438;28;20236;-70
2023/03/25 11:29:55;;;;;;;3.60;2.00;;;;;;;9.25;73.60;99923.19;6198633;28;20241;-69
2023/03/25 11:33:16;;;;;;;2.77;1.23;;;;;;;9.29;74.43;99936.78;6212476;28;20236;-70
2023/03/25 11:36:40;;;;;;;1.43;1.33;;;;;;;9.39;73.31;99931.25;6215063;28;20319;-72
2023/03/25 11:40:10;;;;;;;3.17;0.97;;;;;;;9.45;73.22;99925.28;6220472;28;20367;-69
2023/03/25 11:43:36;;;;;;;1.30;0.80;;;;;;;9.37;73.06;99912.19;6230809;28;20220;-69
2023/03/25 11:47:00;;;;;;;0.63;0.63;;;;;;;10.93;67.59;99913.09;6213018;28;20229;-73
2023/03/25 11:50:23;;;;;;;2.73;1.00;;;;;;;11.34;67.00;99902.56;6222270;28;20232;-73
2023/03/25 11:53:46;;;;;;;2.63;0.80;;;;;;;12.60;61.27;99909.78;6222621;28;20228;-71
2023/03/25 11:57:15;;;;;;;0.53;0.50;;;;;;;11.17;65.76;99903.91;6224917;28;20866;-70
2023/03/25 12:00:40;;;;;;;0.83;0.83;;;;;;;11.43;65.65;99901.38;6224868;28;20807;-70
2023/03/25 12:04:14;;;;;;;1.63;1.40;;;;;;;13.47;58.84;99882.09;6223291;28;20327;-71
2023/03/25 12:07:43;;;;;;;2.10;0.83;;;;;;;15.96;49.91;99871.19;6223196;28;20229;-72
2023/03/25 12:11:09;;;;;;;0.60;0.60;;;;;;;13.86;54.97;99885.56;6211326;28;20232;-72
2023/03/25 12:14:42;;;;;;;1.53;0.50;;;;;;;12.21;61.60;99880.66;6223789;28;20631;-71
2023/03/25 12:18:23;;;;;;;0.87;0.83;;;;;;;11.67;63.30;99876.25;6232488;28;20224;-70
2023/03/25 12:22:07;;;;;;;3.03;0.90;;;;;;;10.63;66.93;99880.81;6227297;28;20244;-71
2023/03/25 12:25:38;;;;;;;0.73;0.60;;;;;;;10.85;67.76;99879.75;6232810;28;20566;-69
2023/03/25 12:29:15;;;;;;;1.17;0.77;;;;;;;11.83;64.58;99864.53;6230065;28;20243;-72
2023/03/25 12:32:46;;;;;;;1.57;1.10;;;;;;;12.03;63.64;99860.09;6226232;28;20504;-71
2023/03/25 12:36:20;;;;;;;1.10;0.73;;;;;;;11.56;63.73;99856.50;6224503;28;22073;-71
2023/03/25 12:39:52;;;;;;;2.80;1.90;;;;;;;10.84;66.72;99866.75;6233404;28;20219;-71
2023/03/25 12:43:22;;;;;;;2.37;2.17;;;;;;;10.59;68.59;99851.38;6230337;28;20236;-70
2023/03/25 12:47:14;;;;;;;0.87;0.87;;;;;;;10.57;69.58;99845.47;6224063;28;20256;-69
2023/03/25 12:50:49;;;;;;;1.87;1.77;;;;;;;10.31;70.92;99849.72;6224267;28;20330;-73
2023/03/25 12:54:31;;;;;;;1.83;1.30;;;;;;;10.26;72.71;99855.56;6227286;28;20229;-71
2023/03/25 12:58:12;;;;;;;5.43;1.40;;;;;;;10.33;72.62;99867.00;6219330;28;20494;-70
2023/03/25 13:01:44;;;;;;;2.03;1.37;;;;;;;10.62;69.90;99855.44;6229570;28;20232;-71
2023/03/25 13:05:14;;;;;;;4.33;1.73;;;;;;;10.69;69.97;99856.28;6233977;28;20232;-74
2023/03/25 13:08:43;;;;;;;1.30;1.20;;;;;;;11.38;66.65;99852.78;6236230;28;20228;-73
2023/03/25 13:12:13;;;;;;;1.73;1.63;;;;;;;10.46;69.67;99853.09;6233418;28;20224;-72
2023/03/25 13:15:39;;;;;;;1.50;1.40;;;;;;;10.32;71.84;99860.09;6231078;28;20239;-73
2023/03/25 13:19:03;;;;;;;1.40;1.30;;;;;;;10.16;72.75;99878.81;6233875;28;20224;-72
2023/03/25 13:22:27;;;;;;;5.73;2.70;;;;;;;9.88;75.34;99876.09;6227415;28;20240;-72
2023/03/25 13:25:52;;;;;;;3.23;2.07;;;;;;;9.69;78.21;99869.63;6232209;28;20236;-73
2023/03/25 13:29:26;;;;;;;2.07;1.20;;;;;;;9.92;79.66;99867.63;6220669;28;20232;-74
2023/03/25 13:32:50;;;;;;;1.60;0.93;;;;;;;10.08;80.91;99869.19;6225731;28;20235;-74
2023/03/25 13:36:17;;;;;;;4.00;1.63;;;;;;;9.82;79.16;99871.56;6220281;28;20260;-74
2023/03/25 13:40:03;;;;;;;1.87;1.70;;;;;;;9.68;79.96;99869.81;6223990;28;22348;-71
2023/03/25 13:43:30;;;;;;;7.10;1.13;;;;;;;10.00;76.56;99868.50;6228018;28;20232;-72
2023/03/25 13:47:00;;;;;;;6.97;2.50;;;;;;;10.00;79.24;99864.03;6229811;28;20225;-73
2023/03/25 13:50:26;;;;;;;1.77;1.37;;;;;;;10.27;78.96;99871.22;6232925;28;20504;-73
2023/03/25 13:53:53;;;;;;;3.10;2.57;;;;;;;10.29;77.57;99855.19;6231802;28;20232;-73
2023/03/25 13:57:45;;;;;;;1.50;1.20;;;;;;;10.28;76.38;99854.38;6222995;28;20240;-70
2023/03/25 14:01:33;;;;;;;3.20;1.70;;;;;;;10.28;76.52;99849.09;6221233;28;20233;-73
2023/03/25 14:05:32;;;;;;;2.13;1.60;;;;;;;10.16;76.79;99862.97;6221075;28;20227;-71
2023/03/25 14:09:23;;;;;;;6.27;1.73;;;;;;;9.99;77.65;99853.69;6190573;28;20220;-73
2023/03/25 14:12:46;;;;;;;1.63;1.53;;;;;;;9.86;78.11;99860.47;6212307;28;20524;-74
2023/03/25 14:16:11;;;;;;;2.57;2.23;;;;;;;9.82;77.63;99856.56;6215910;28;25528;-72
2023/03/25 14:19:36;;;;;;;1.70;1.33;;;;;;;9.96;76.85;99857.50;6220130;28;20228;-71
2023/03/25 14:23:03;;;;;;;2.07;1.33;;;;;;;10.09;76.65;99870.00;6218130;28;20233;-71
2023/03/25 14:26:24;;;;;;;3.50;2.40;;;;;;;10.21;76.27;99865.88;6219998;28;20247;-71
2023/03/25 14:29:47;;;;;;;1.27;1.00;;;;;;;10.22;76.12;99867.50;6229717;28;20307;-72
2023/03/25 14:33:09;;;;;;;3.33;2.60;;;;;;;10.29;75.87;99871.03;6215158;28;20327;-72
2023/03/25 14:36:51;;;;;;;1.80;1.70;;;;;;;10.34;75.52;99878.38;6218304;28;20236;-74
2023/03/25 14:40:47;;;;;;;4.73;1.20;;;;;;;10.17;74.84;99872.50;6226782;28;20220;-73
2023/03/25 14:44:18;;;;;;;0.80;0.80;;;;;;;10.23;75.20;99877.06;6144114;28;20328;-74
2023/03/25 14:47:51;;;;;;;2.67;0.73;;;;;;;10.20;74.72;99867.69;6161031;28;20516;-74
2023/03/25 14:51:47;;;;;;;3.93;1.50;;;;;;;10.33;74.77;99864.38;6224268;28;20240;-75
2023/03/25 14:55:14;;;;;;;1.70;1.00;;;;;;;10.11;75.92;99870.63;6190638;28;20232;-73
2023/03/25 14:58:39;;;;;;;2.33;0.90;;;;;;;9.62;77.00;99875.81;6225397;28;20228;-74
2023/03/25 15:02:04;;;;;;;1.63;0.77;;;;;;;9.24;78.84;99878.63;6208942;28;20228;-74
2023/03/25 15:05:27;;;;;;;1.03;1.03;;;;;;;9.08;80.22;99876.97;6224205;28;20248;-74
2023/03/25 15:08:53;;;;;;;2.93;1.90;;;;;;;9.20;80.17;99875.53;6224814;28;20232;-74
2023/03/25 15:12:19;;;;;;;0.90;0.90;;;;;;;9.08;81.82;99879.59;6230231;28;20239;-74
2023/03/25 15:16:00;;;;;;;3.87;1.50;;;;;;;8.96;82.36;99873.19;6220858;28;20236;-74
2023/03/25 15:19:21;;;;;;;1.50;1.20;;;;;;;9.07;80.71;99864.00;6211915;28;20315;-74
2023/03/25 15:22:43;;;;;;;3.13;1.23;;;;;;;9.07;81.84;99867.44;6215609;28;20240;-73
2023/03/25 15:26:05;;;;;;;1.37;1.27;;;;;;;9.13;82.55;99858.81;6215358;28;20229;-73
2023/03/25 15:29:38;;;;;;;2.70;1.47;;;;;;;9.05;80.62;99863.34;6210338;28;20516;-74
2023/03/25 15:33:16;;;;;;;0.83;0.83;;;;;;;8.95;81.64;99844.41;6216346;28;20348;-74
2023/03/25 15:36:52;;;;;;;2.33;1.60;;;;;;;9.52;82.38;99841.84;6211331;28;20907;-76
2023/03/25 15:40:24;;;;;;;2.27;0.70;;;;;;;10.03;79.07;99824.13;6217544;28;20221;-74
2023/03/25 15:44:10;;;;;;;0.80;0.73;;;;;;;10.13;76.57;99823.81;6219951;28;20231;-74
2023/03/25 15:47:44;;;;;;;1.60;0.93;;;;;;;9.76;78.87;99822.22;6221107;28;20220;-75
2023/03/25 15:51:20;;;;;;;1.67;0.67;;;;;;;9.58;78.85;99827.94;6205637;28;20224;-69
2023/03/25 15:54:43;;;;;;;0.80;0.80;;;;;;;9.51;77.46;99809.41;6205019;28;20247;-73
2023/03/25 15:58:06;;;;;;;1.23;0.90;;;;;;;9.06;78.37;99801.81;6206096;28;20550;-74
2023/03/25 16:01:30;;;;;;;1.40;0.97;;;;;;;8.91;78.22;99807.13;6205163;28;20228;-73
2023/03/25 16:04:51;;;;;;;0.90;0.90;;;;;;;8.94;79.01;99813.81;6196936;28;20228;-73
2023/03/25 16:08:19;;;;;;;0.70;0.70;;;;;;;9.49;79.88;99819.31;6185542;28;20232;-73
2023/03/25 16:11:44;;;;;;;1.80;1.03;;;;;;;9.08;79.39;99807.72;6185170;28;20239;-74
2023/03/25 16:15:07;;;;;;;0.80;0.80;;;;;;;9.05;80.44;99790.47;6193226;28;20355;-74
2023/03/25 16:18:28;;;;;;;1.30;1.20;;;;;;;9.13;80.58;99808.00;6211650;28;20229;-72